15°C Temp
7°C Dewpoint
% Humidity
Temperature
8 KM/H
5 MPH
4 KTS
210°
South South
West

Wind Speed
Despejado
Pressure 1019.92 (hPa) - 30.12 (in)
Visibility 6.2 (mi) - 10.0 (km)

Current Conditions
LEAL
Location 70(km)
Metar :LEAL 160730Z 21004KT 180V250 CAVOK 15/07 Q1020 NOSIG
Wed 16th October 09:30 am

Airport
  Metar Aviation API Data Provided by https://www.checkwx.com/ PHP scripts by weather34.com ©2019